Terminal Aerodrome Forecast
Issued by NWS

Home | Current Version | Previous Version | Text Only | Print | Product List | Glossary Off
Versions: 1 2 3 4 5 6 7 8 9 10 11 12 13 14 15 16 17 18 19 20 21 22 23 24 25 26 27 28 29 30 31 32

000
FTUS43 KLOT 291300 AAA
TAFMDW
TAF AMD
KMDW 291359Z 2914/3012 33013G20KT 6SM -SHRA BR OVC018
     FM291500 33016G24KT 5SM -RASN BR OVC012
     FM291700 33019G32KT P6SM OVC015
     FM300100 33017G24KT P6SM BKN020
     FM300900 32011G18KT P6SM SCT020=

USA.gov is the U.S. government's official web portal to all federal, state and local government web resources and services.